sensor_id;sensor_type;location;lat;lon;timestamp;temperature;humidity
69054;DHT22;56125;52.242;4.756;2023-04-05T00:00:18;18.60;36.60
69054;DHT22;56125;52.242;4.756;2023-04-05T00:05:20;19.10;36.90
69054;DHT22;56125;52.242;4.756;2023-04-05T00:10:30;18.60;36.80
69054;DHT22;56125;52.242;4.756;2023-04-05T00:15:31;19.30;36.90
69054;DHT22;56125;52.242;4.756;2023-04-05T00:20:32;18.50;36.60
69054;DHT22;56125;52.242;4.756;2023-04-05T00:25:37;18.50;36.60
69054;DHT22;56125;52.242;4.756;2023-04-05T00:30:38;18.50;36.60
69054;DHT22;56125;52.242;4.756;2023-04-05T00:35:39;18.40;36.50
69054;DHT22;56125;52.242;4.756;2023-04-05T00:40:40;18.40;36.50
69054;DHT22;56125;52.242;4.756;2023-04-05T00:45:41;18.40;36.40
69054;DHT22;56125;52.242;4.756;2023-04-05T00:50:42;18.40;36.40
69054;DHT22;56125;52.242;4.756;2023-04-05T00:55:47;18.40;36.50
69054;DHT22;56125;52.242;4.756;2023-04-05T01:01:15;18.30;36.30
69054;DHT22;56125;52.242;4.756;2023-04-05T01:11:39;18.30;36.40
69054;DHT22;56125;52.242;4.756;2023-04-05T01:16:41;18.30;36.50
69054;DHT22;56125;52.242;4.756;2023-04-05T01:22:06;18.30;36.40
69054;DHT22;56125;52.242;4.756;2023-04-05T01:27:19;18.20;36.40
69054;DHT22;56125;52.242;4.756;2023-04-05T01:37:59;18.20;36.40
69054;DHT22;56125;52.242;4.756;2023-04-05T01:43:02;18.10;36.40
69054;DHT22;56125;52.242;4.756;2023-04-05T01:48:12;18.20;36.40
69054;DHT22;56125;52.242;4.756;2023-04-05T01:53:15;18.20;36.40
69054;DHT22;56125;52.242;4.756;2023-04-05T01:58:16;18.10;36.50
69054;DHT22;56125;52.242;4.756;2023-04-05T02:03:17;18.10;36.50
69054;DHT22;56125;52.242;4.756;2023-04-05T02:08:18;18.10;36.60
69054;DHT22;56125;52.242;4.756;2023-04-05T02:13:19;18.10;36.40
69054;DHT22;56125;52.242;4.756;2023-04-05T02:18:21;18.10;36.60
69054;DHT22;56125;52.242;4.756;2023-04-05T02:23:30;18.00;36.40
69054;DHT22;56125;52.242;4.756;2023-04-05T02:28:31;18.00;36.50
69054;DHT22;56125;52.242;4.756;2023-04-05T02:33:32;18.00;36.50
69054;DHT22;56125;52.242;4.756;2023-04-05T02:38:34;18.00;36.60
69054;DHT22;56125;52.242;4.756;2023-04-05T02:43:36;18.00;36.60
69054;DHT22;56125;52.242;4.756;2023-04-05T02:48:37;18.00;37.10
69054;DHT22;56125;52.242;4.756;2023-04-05T02:53:38;18.00;36.50
69054;DHT22;56125;52.242;4.756;2023-04-05T02:58:39;18.00;36.60
69054;DHT22;56125;52.242;4.756;2023-04-05T03:03:40;18.00;37.10
69054;DHT22;56125;52.242;4.756;2023-04-05T03:08:42;17.90;36.70
69054;DHT22;56125;52.242;4.756;2023-04-05T03:13:48;18.00;36.60
69054;DHT22;56125;52.242;4.756;2023-04-05T03:18:49;18.00;36.50
69054;DHT22;56125;52.242;4.756;2023-04-05T03:23:50;18.00;36.70
69054;DHT22;56125;52.242;4.756;2023-04-05T03:28:51;18.00;36.60
69054;DHT22;56125;52.242;4.756;2023-04-05T03:33:52;18.00;36.80
69054;DHT22;56125;52.242;4.756;2023-04-05T03:38:53;18.00;36.40
69054;DHT22;56125;52.242;4.756;2023-04-05T03:43:55;18.00;36.80
69054;DHT22;56125;52.242;4.756;2023-04-05T03:48:57;18.00;36.40
69054;DHT22;56125;52.242;4.756;2023-04-05T03:53:58;18.00;36.70
69054;DHT22;56125;52.242;4.756;2023-04-05T03:58:59;18.00;36.40
69054;DHT22;56125;52.242;4.756;2023-04-05T04:04:00;18.00;36.30
69054;DHT22;56125;52.242;4.756;2023-04-05T04:09:01;18.00;36.20
69054;DHT22;56125;52.242;4.756;2023-04-05T04:14:02;18.10;36.30
69054;DHT22;56125;52.242;4.756;2023-04-05T04:19:03;18.10;36.20
69054;DHT22;56125;52.242;4.756;2023-04-05T04:24:05;18.10;36.30
69054;DHT22;56125;52.242;4.756;2023-04-05T04:29:06;18.10;36.20
69054;DHT22;56125;52.242;4.756;2023-04-05T04:34:07;18.10;36.10
69054;DHT22;56125;52.242;4.756;2023-04-05T04:39:08;18.10;36.00
69054;DHT22;56125;52.242;4.756;2023-04-05T04:44:10;18.20;36.00
69054;DHT22;56125;52.242;4.756;2023-04-05T04:49:14;18.20;36.00
69054;DHT22;56125;52.242;4.756;2023-04-05T04:54:17;18.20;35.90
69054;DHT22;56125;52.242;4.756;2023-04-05T04:59:20;18.20;35.80
69054;DHT22;56125;52.242;4.756;2023-04-05T05:04:21;18.20;36.00
69054;DHT22;56125;52.242;4.756;2023-04-05T05:09:22;18.20;35.70
69054;DHT22;56125;52.242;4.756;2023-04-05T05:14:23;18.30;35.80
69054;DHT22;56125;52.242;4.756;2023-04-05T05:19:24;18.30;35.80
69054;DHT22;56125;52.242;4.756;2023-04-05T05:24:25;18.30;36.40
69054;DHT22;56125;52.242;4.756;2023-04-05T05:29:27;18.80;36.00
69054;DHT22;56125;52.242;4.756;2023-04-05T05:34:28;18.40;36.90
69054;DHT22;56125;52.242;4.756;2023-04-05T05:39:29;18.30;37.00
69054;DHT22;56125;52.242;4.756;2023-04-05T05:44:30;18.40;36.30
69054;DHT22;56125;52.242;4.756;2023-04-05T05:49:31;18.20;35.60
69054;DHT22;56125;52.242;4.756;2023-04-05T05:54:32;18.20;35.60
69054;DHT22;56125;52.242;4.756;2023-04-05T05:59:33;18.20;34.70
69054;DHT22;56125;52.242;4.756;2023-04-05T06:04:34;18.20;35.70
69054;DHT22;56125;52.242;4.756;2023-04-05T06:09:35;18.20;34.90
69054;DHT22;56125;52.242;4.756;2023-04-05T06:14:37;18.20;35.10
69054;DHT22;56125;52.242;4.756;2023-04-05T06:19:38;18.20;34.90
69054;DHT22;56125;52.242;4.756;2023-04-05T06:24:39;18.30;34.80
69054;DHT22;56125;52.242;4.756;2023-04-05T06:29:40;18.50;35.00
69054;DHT22;56125;52.242;4.756;2023-04-05T06:34:41;18.60;35.00
69054;DHT22;56125;52.242;4.756;2023-04-05T06:39:42;18.70;35.00
69054;DHT22;56125;52.242;4.756;2023-04-05T06:44:43;18.70;35.10
69054;DHT22;56125;52.242;4.756;2023-04-05T06:49:44;18.90;35.90
69054;DHT22;56125;52.242;4.756;2023-04-05T06:54:45;18.90;36.00
69054;DHT22;56125;52.242;4.756;2023-04-05T06:59:46;19.00;36.10
69054;DHT22;56125;52.242;4.756;2023-04-05T07:04:47;19.10;36.10
69054;DHT22;56125;52.242;4.756;2023-04-05T07:09:48;19.10;35.80
69054;DHT22;56125;52.242;4.756;2023-04-05T07:14:50;19.20;36.20
69054;DHT22;56125;52.242;4.756;2023-04-05T07:19:51;19.30;36.40
69054;DHT22;56125;52.242;4.756;2023-04-05T07:24:52;19.30;36.50
69054;DHT22;56125;52.242;4.756;2023-04-05T07:29:53;19.40;36.40
69054;DHT22;56125;52.242;4.756;2023-04-05T07:34:54;19.40;36.40
69054;DHT22;56125;52.242;4.756;2023-04-05T07:39:56;19.50;36.80
69054;DHT22;56125;52.242;4.756;2023-04-05T07:44:58;19.50;36.50
69054;DHT22;56125;52.242;4.756;2023-04-05T07:49:59;19.60;36.70
69054;DHT22;56125;52.242;4.756;2023-04-05T07:55:00;19.70;36.60
69054;DHT22;56125;52.242;4.756;2023-04-05T08:00:02;19.70;36.60
69054;DHT22;56125;52.242;4.756;2023-04-05T08:05:04;19.70;36.70
69054;DHT22;56125;52.242;4.756;2023-04-05T08:10:06;19.70;36.60
69054;DHT22;56125;52.242;4.756;2023-04-05T08:15:07;19.70;36.90
69054;DHT22;56125;52.242;4.756;2023-04-05T08:20:08;19.70;37.30
69054;DHT22;56125;52.242;4.756;2023-04-05T08:25:09;19.70;37.00
69054;DHT22;56125;52.242;4.756;2023-04-05T08:30:11;19.70;37.00
69054;DHT22;56125;52.242;4.756;2023-04-05T08:40:46;19.70;37.00
69054;DHT22;56125;52.242;4.756;2023-04-05T08:45:51;19.70;37.20
69054;DHT22;56125;52.242;4.756;2023-04-05T08:50:54;19.70;37.30
69054;DHT22;56125;52.242;4.756;2023-04-05T08:55:56;19.70;37.20
69054;DHT22;56125;52.242;4.756;2023-04-05T09:00:58;19.70;37.20
69054;DHT22;56125;52.242;4.756;2023-04-05T09:06:03;19.70;37.40
69054;DHT22;56125;52.242;4.756;2023-04-05T09:11:06;19.70;37.20
69054;DHT22;56125;52.242;4.756;2023-04-05T09:16:07;19.70;37.40
69054;DHT22;56125;52.242;4.756;2023-04-05T09:21:08;19.60;37.10
69054;DHT22;56125;52.242;4.756;2023-04-05T09:26:19;19.70;35.80
69054;DHT22;56125;52.242;4.756;2023-04-05T09:31:34;20.00;35.20
69054;DHT22;56125;52.242;4.756;2023-04-05T09:36:35;19.90;35.60
69054;DHT22;56125;52.242;4.756;2023-04-05T09:42:09;20.20;35.30
69054;DHT22;56125;52.242;4.756;2023-04-05T09:47:15;20.20;35.10
69054;DHT22;56125;52.242;4.756;2023-04-05T09:52:20;20.20;34.30
69054;DHT22;56125;52.242;4.756;2023-04-05T09:57:22;20.30;34.80
69054;DHT22;56125;52.242;4.756;2023-04-05T10:02:24;20.40;35.00
69054;DHT22;56125;52.242;4.756;2023-04-05T10:07:25;20.40;35.20
69054;DHT22;56125;52.242;4.756;2023-04-05T10:12:27;20.40;35.40
69054;DHT22;56125;52.242;4.756;2023-04-05T10:17:36;20.40;34.60
69054;DHT22;56125;52.242;4.756;2023-04-05T10:23:11;20.40;35.10
69054;DHT22;56125;52.242;4.756;2023-04-05T10:28:33;20.50;35.10
69054;DHT22;56125;52.242;4.756;2023-04-05T10:33:39;20.50;34.70
69054;DHT22;56125;52.242;4.756;2023-04-05T10:39:04;20.40;34.90
69054;DHT22;56125;52.242;4.756;2023-04-05T10:44:13;20.50;35.10
69054;DHT22;56125;52.242;4.756;2023-04-05T10:49:38;20.50;35.20
69054;DHT22;56125;52.242;4.756;2023-04-05T10:54:39;20.50;34.60
69054;DHT22;56125;52.242;4.756;2023-04-05T10:59:51;20.60;34.70
69054;DHT22;56125;52.242;4.756;2023-04-05T11:04:54;20.00;34.40
69054;DHT22;56125;52.242;4.756;2023-04-05T11:10:02;20.50;34.80
69054;DHT22;56125;52.242;4.756;2023-04-05T11:25:50;20.70;34.70
69054;DHT22;56125;52.242;4.756;2023-04-05T11:30:53;20.60;35.00
69054;DHT22;56125;52.242;4.756;2023-04-05T11:36:00;20.70;35.00
69054;DHT22;56125;52.242;4.756;2023-04-05T11:41:14;20.70;35.20
69054;DHT22;56125;52.242;4.756;2023-04-05T11:46:17;20.70;34.70
69054;DHT22;56125;52.242;4.756;2023-04-05T11:51:23;20.70;34.90
69054;DHT22;56125;52.242;4.756;2023-04-05T11:56:25;20.70;34.80
69054;DHT22;56125;52.242;4.756;2023-04-05T12:01:26;20.70;35.10
69054;DHT22;56125;52.242;4.756;2023-04-05T12:06:28;20.70;34.90
69054;DHT22;56125;52.242;4.756;2023-04-05T12:11:29;20.80;34.80
69054;DHT22;56125;52.242;4.756;2023-04-05T12:16:31;20.70;34.70
69054;DHT22;56125;52.242;4.756;2023-04-05T12:21:32;20.70;34.50
69054;DHT22;56125;52.242;4.756;2023-04-05T12:26:34;20.80;34.30
69054;DHT22;56125;52.242;4.756;2023-04-05T12:31:42;20.70;34.00
69054;DHT22;56125;52.242;4.756;2023-04-05T12:36:44;20.70;33.70
69054;DHT22;56125;52.242;4.756;2023-04-05T12:41:58;20.70;34.10
69054;DHT22;56125;52.242;4.756;2023-04-05T12:47:00;20.70;34.10
69054;DHT22;56125;52.242;4.756;2023-04-05T12:52:02;20.80;34.40
69054;DHT22;56125;52.242;4.756;2023-04-05T12:57:03;20.80;34.40
69054;DHT22;56125;52.242;4.756;2023-04-05T13:02:08;20.90;34.20
69054;DHT22;56125;52.242;4.756;2023-04-05T13:07:09;20.90;34.10
69054;DHT22;56125;52.242;4.756;2023-04-05T13:12:10;21.00;34.60
69054;DHT22;56125;52.242;4.756;2023-04-05T13:17:12;21.00;34.20
69054;DHT22;56125;52.242;4.756;2023-04-05T13:22:13;21.00;34.20
69054;DHT22;56125;52.242;4.756;2023-04-05T13:27:14;21.10;34.20
69054;DHT22;56125;52.242;4.756;2023-04-05T13:32:15;21.10;34.30
69054;DHT22;56125;52.242;4.756;2023-04-05T13:37:16;21.10;33.30
69054;DHT22;56125;52.242;4.756;2023-04-05T13:42:17;21.00;33.20
69054;DHT22;56125;52.242;4.756;2023-04-05T13:47:18;21.10;33.50
69054;DHT22;56125;52.242;4.756;2023-04-05T13:52:19;21.10;33.80
69054;DHT22;56125;52.242;4.756;2023-04-05T13:57:20;21.10;33.90
69054;DHT22;56125;52.242;4.756;2023-04-05T14:02:21;21.20;34.00
69054;DHT22;56125;52.242;4.756;2023-04-05T14:07:25;21.20;34.00
69054;DHT22;56125;52.242;4.756;2023-04-05T14:12:26;21.30;33.80
69054;DHT22;56125;52.242;4.756;2023-04-05T14:17:27;21.30;34.20
69054;DHT22;56125;52.242;4.756;2023-04-05T14:22:28;21.30;33.80
69054;DHT22;56125;52.242;4.756;2023-04-05T14:27:29;21.40;34.10
69054;DHT22;56125;52.242;4.756;2023-04-05T14:32:30;21.40;33.70
69054;DHT22;56125;52.242;4.756;2023-04-05T14:37:31;21.50;33.70
69054;DHT22;56125;52.242;4.756;2023-04-05T14:42:32;21.40;34.00
69054;DHT22;56125;52.242;4.756;2023-04-05T14:47:33;21.50;33.80
69054;DHT22;56125;52.242;4.756;2023-04-05T14:52:34;21.50;34.10
69054;DHT22;56125;52.242;4.756;2023-04-05T14:57:35;21.60;33.90
69054;DHT22;56125;52.242;4.756;2023-04-05T15:02:36;21.60;34.00
69054;DHT22;56125;52.242;4.756;2023-04-05T15:07:37;21.60;34.10
69054;DHT22;56125;52.242;4.756;2023-04-05T15:12:38;21.60;33.90
69054;DHT22;56125;52.242;4.756;2023-04-05T15:17:40;21.60;34.90
69054;DHT22;56125;52.242;4.756;2023-04-05T15:22:42;22.00;34.30
69054;DHT22;56125;52.242;4.756;2023-04-05T15:27:43;21.70;33.90
69054;DHT22;56125;52.242;4.756;2023-04-05T15:32:44;21.60;33.60
69054;DHT22;56125;52.242;4.756;2023-04-05T15:37:45;22.10;34.50
69054;DHT22;56125;52.242;4.756;2023-04-05T15:42:46;21.50;34.10
69054;DHT22;56125;52.242;4.756;2023-04-05T15:47:47;21.30;34.50
69054;DHT22;56125;52.242;4.756;2023-04-05T15:52:49;21.30;33.10
69054;DHT22;56125;52.242;4.756;2023-04-05T15:57:50;21.20;32.90
69054;DHT22;56125;52.242;4.756;2023-04-05T16:02:54;21.10;32.80
69054;DHT22;56125;52.242;4.756;2023-04-05T16:07:58;21.10;32.90
69054;DHT22;56125;52.242;4.756;2023-04-05T16:12:59;21.00;32.70
69054;DHT22;56125;52.242;4.756;2023-04-05T16:18:00;20.90;32.60
69054;DHT22;56125;52.242;4.756;2023-04-05T16:23:02;20.90;33.00
69054;DHT22;56125;52.242;4.756;2023-04-05T16:28:03;20.80;32.80
69054;DHT22;56125;52.242;4.756;2023-04-05T16:33:06;20.80;32.80
69054;DHT22;56125;52.242;4.756;2023-04-05T16:38:07;20.80;33.10
69054;DHT22;56125;52.242;4.756;2023-04-05T16:43:09;20.70;33.40
69054;DHT22;56125;52.242;4.756;2023-04-05T16:48:10;20.70;33.40
69054;DHT22;56125;52.242;4.756;2023-04-05T16:53:12;20.70;33.40
69054;DHT22;56125;52.242;4.756;2023-04-05T16:58:14;20.60;33.30
69054;DHT22;56125;52.242;4.756;2023-04-05T17:03:16;20.60;33.30
69054;DHT22;56125;52.242;4.756;2023-04-05T17:08:17;20.50;33.20
69054;DHT22;56125;52.242;4.756;2023-04-05T17:13:18;20.50;33.20
69054;DHT22;56125;52.242;4.756;2023-04-05T17:18:19;20.40;33.90
69054;DHT22;56125;52.242;4.756;2023-04-05T17:23:20;20.40;34.80
69054;DHT22;56125;52.242;4.756;2023-04-05T17:28:21;20.40;34.40
69054;DHT22;56125;52.242;4.756;2023-04-05T17:33:22;20.30;34.10
69054;DHT22;56125;52.242;4.756;2023-04-05T17:38:23;20.30;34.00
69054;DHT22;56125;52.242;4.756;2023-04-05T17:43:25;20.30;34.40
69054;DHT22;56125;52.242;4.756;2023-04-05T17:48:26;20.30;34.80
69054;DHT22;56125;52.242;4.756;2023-04-05T17:53:29;20.00;34.60
69054;DHT22;56125;52.242;4.756;2023-04-05T17:58:30;20.30;35.00
69054;DHT22;56125;52.242;4.756;2023-04-05T18:03:32;19.90;34.90
69054;DHT22;56125;52.242;4.756;2023-04-05T18:08:33;20.40;35.40
69054;DHT22;56125;52.242;4.756;2023-04-05T18:13:34;20.30;35.40
69054;DHT22;56125;52.242;4.756;2023-04-05T18:18:35;20.30;35.50
69054;DHT22;56125;52.242;4.756;2023-04-05T18:23:36;20.20;35.70
69054;DHT22;56125;52.242;4.756;2023-04-05T18:28:37;20.20;35.90
69054;DHT22;56125;52.242;4.756;2023-04-05T18:33:38;20.20;36.00
69054;DHT22;56125;52.242;4.756;2023-04-05T18:38:40;20.20;36.20
69054;DHT22;56125;52.242;4.756;2023-04-05T18:43:41;20.10;36.00
69054;DHT22;56125;52.242;4.756;2023-04-05T18:48:43;20.10;35.80
69054;DHT22;56125;52.242;4.756;2023-04-05T18:53:43;20.10;35.80
69054;DHT22;56125;52.242;4.756;2023-04-05T18:58:45;20.00;35.70
69054;DHT22;56125;52.242;4.756;2023-04-05T19:03:46;20.00;35.50
69054;DHT22;56125;52.242;4.756;2023-04-05T19:08:48;20.00;36.50
69054;DHT22;56125;52.242;4.756;2023-04-05T19:13:49;20.00;35.50
69054;DHT22;56125;52.242;4.756;2023-04-05T19:18:50;19.90;35.40
69054;DHT22;56125;52.242;4.756;2023-04-05T19:23:52;19.90;35.50
69054;DHT22;56125;52.242;4.756;2023-04-05T19:28:53;19.90;35.40
69054;DHT22;56125;52.242;4.756;2023-04-05T19:33:55;19.80;35.30
69054;DHT22;56125;52.242;4.756;2023-04-05T19:38:56;19.80;35.40
69054;DHT22;56125;52.242;4.756;2023-04-05T19:43:59;19.90;35.50
69054;DHT22;56125;52.242;4.756;2023-04-05T19:49:11;19.80;35.50
69054;DHT22;56125;52.242;4.756;2023-04-05T19:54:14;19.70;35.30
69054;DHT22;56125;52.242;4.756;2023-04-05T19:59:30;19.70;35.60
69054;DHT22;56125;52.242;4.756;2023-04-05T20:04:32;19.70;35.40
69054;DHT22;56125;52.242;4.756;2023-04-05T20:09:38;19.70;35.50
69054;DHT22;56125;52.242;4.756;2023-04-05T20:14:43;19.60;35.30
69054;DHT22;56125;52.242;4.756;2023-04-05T20:19:56;19.60;35.20
69054;DHT22;56125;52.242;4.756;2023-04-05T20:25:35;19.50;35.20
69054;DHT22;56125;52.242;4.756;2023-04-05T20:30:31;18.90;35.10
69054;DHT22;56125;52.242;4.756;2023-04-05T20:35:33;19.50;35.30
69054;DHT22;56125;52.242;4.756;2023-04-05T20:40:35;19.50;35.30
69054;DHT22;56125;52.242;4.756;2023-04-05T20:45:36;19.50;35.30
69054;DHT22;56125;52.242;4.756;2023-04-05T20:50:37;19.40;35.20
69054;DHT22;56125;52.242;4.756;2023-04-05T20:55:38;19.40;35.30
69054;DHT22;56125;52.242;4.756;2023-04-05T21:00:39;19.40;35.20
69054;DHT22;56125;52.242;4.756;2023-04-05T21:05:41;19.40;35.20
69054;DHT22;56125;52.242;4.756;2023-04-05T21:10:42;19.40;35.20
69054;DHT22;56125;52.242;4.756;2023-04-05T21:15:43;19.40;36.20
69054;DHT22;56125;52.242;4.756;2023-04-05T21:20:44;19.30;35.40
69054;DHT22;56125;52.242;4.756;2023-04-05T21:25:50;19.30;35.40
69054;DHT22;56125;52.242;4.756;2023-04-05T21:30:51;19.30;35.40
69054;DHT22;56125;52.242;4.756;2023-04-05T21:35:52;19.80;35.60
69054;DHT22;56125;52.242;4.756;2023-04-05T21:40:53;19.30;35.50
69054;DHT22;56125;52.242;4.756;2023-04-05T21:45:55;19.00;35.30
69054;DHT22;56125;52.242;4.756;2023-04-05T21:50:56;19.20;35.40
69054;DHT22;56125;52.242;4.756;2023-04-05T21:55:57;19.20;35.50
69054;DHT22;56125;52.242;4.756;2023-04-05T22:00:58;19.20;35.60
69054;DHT22;56125;52.242;4.756;2023-04-05T22:06:00;19.20;35.70
69054;DHT22;56125;52.242;4.756;2023-04-05T22:11:01;19.20;35.80
69054;DHT22;56125;52.242;4.756;2023-04-05T22:16:02;19.10;35.80
69054;DHT22;56125;52.242;4.756;2023-04-05T22:21:03;19.50;36.10
69054;DHT22;56125;52.242;4.756;2023-04-05T22:26:05;19.10;35.90
69054;DHT22;56125;52.242;4.756;2023-04-05T22:31:06;19.00;35.90
69054;DHT22;56125;52.242;4.756;2023-04-05T22:36:07;19.00;35.90
69054;DHT22;56125;52.242;4.756;2023-04-05T22:41:11;19.00;36.00
69054;DHT22;56125;52.242;4.756;2023-04-05T22:46:12;19.00;36.10
69054;DHT22;56125;52.242;4.756;2023-04-05T22:51:13;19.00;36.10
69054;DHT22;56125;52.242;4.756;2023-04-05T22:56:14;19.00;36.10
69054;DHT22;56125;52.242;4.756;2023-04-05T23:01:17;19.00;36.10
69054;DHT22;56125;52.242;4.756;2023-04-05T23:06:18;19.00;36.10
69054;DHT22;56125;52.242;4.756;2023-04-05T23:11:19;18.90;36.20
69054;DHT22;56125;52.242;4.756;2023-04-05T23:16:21;18.90;36.20
69054;DHT22;56125;52.242;4.756;2023-04-05T23:21:22;18.90;36.20
69054;DHT22;56125;52.242;4.756;2023-04-05T23:26:23;18.90;36.20
69054;DHT22;56125;52.242;4.756;2023-04-05T23:31:24;18.90;36.20
69054;DHT22;56125;52.242;4.756;2023-04-05T23:36:25;18.90;36.20
69054;DHT22;56125;52.242;4.756;2023-04-05T23:41:27;19.20;36.50
69054;DHT22;56125;52.242;4.756;2023-04-05T23:46:28;18.80;36.20
69054;DHT22;56125;52.242;4.756;2023-04-05T23:51:29;18.80;36.20
69054;DHT22;56125;52.242;4.756;2023-04-05T23:56:31;18.90;36.40
